sensor_id;sensor_type;location;lat;lon;timestamp;pressure;altitude;pressure_sealevel;temperature;humidity
66762;BME280;53672;48.176;16.338;2023-02-17T00:02:14;100033.47;;;5.01;65.20
66762;BME280;53672;48.176;16.338;2023-02-17T00:07:16;100025.16;;;4.91;65.66
66762;BME280;53672;48.176;16.338;2023-02-17T00:12:16;100021.81;;;4.78;66.38
66762;BME280;53672;48.176;16.338;2023-02-17T00:17:17;100023.22;;;4.62;66.51
66762;BME280;53672;48.176;16.338;2023-02-17T00:22:19;100021.84;;;4.53;66.92
66762;BME280;53672;48.176;16.338;2023-02-17T00:27:19;100011.47;;;4.45;67.20
66762;BME280;53672;48.176;16.338;2023-02-17T00:32:20;100010.06;;;4.36;68.26
66762;BME280;53672;48.176;16.338;2023-02-17T00:37:21;100016.13;;;4.25;68.03
66762;BME280;53672;48.176;16.338;2023-02-17T00:42:22;100005.41;;;4.31;67.34
66762;BME280;53672;48.176;16.338;2023-02-17T00:47:22;100004.97;;;4.34;67.58
66762;BME280;53672;48.176;16.338;2023-02-17T00:52:24;100004.59;;;4.31;67.99
66762;BME280;53672;48.176;16.338;2023-02-17T00:57:25;99989.41;;;4.31;67.99
66762;BME280;53672;48.176;16.338;2023-02-17T01:02:25;99980.13;;;4.34;68.13
66762;BME280;53672;48.176;16.338;2023-02-17T01:07:27;99982.69;;;4.47;68.05
66762;BME280;53672;48.176;16.338;2023-02-17T01:12:28;99973.34;;;4.56;67.68
66762;BME280;53672;48.176;16.338;2023-02-17T01:17:28;99976.25;;;4.73;67.42
66762;BME280;53672;48.176;16.338;2023-02-17T01:22:30;99965.28;;;4.63;67.90
66762;BME280;53672;48.176;16.338;2023-02-17T01:27:32;99961.25;;;4.53;68.55
66762;BME280;53672;48.176;16.338;2023-02-17T01:32:33;99957.91;;;4.40;69.31
66762;BME280;53672;48.176;16.338;2023-02-17T01:37:35;99941.41;;;4.25;70.19
66762;BME280;53672;48.176;16.338;2023-02-17T01:42:35;99939.34;;;4.27;69.76
66762;BME280;53672;48.176;16.338;2023-02-17T01:47:36;99938.09;;;4.29;71.10
66762;BME280;53672;48.176;16.338;2023-02-17T01:52:38;99942.41;;;4.30;70.79
66762;BME280;53672;48.176;16.338;2023-02-17T01:57:40;99947.50;;;4.32;70.93
66762;BME280;53672;48.176;16.338;2023-02-17T02:02:45;99942.47;;;4.42;69.86
66762;BME280;53672;48.176;16.338;2023-02-17T02:07:49;99936.63;;;4.33;71.00
66762;BME280;53672;48.176;16.338;2023-02-17T02:12:51;99946.41;;;4.21;71.21
66762;BME280;53672;48.176;16.338;2023-02-17T02:18:01;99932.69;;;4.18;70.85
66762;BME280;53672;48.176;16.338;2023-02-17T02:28:49;99922.97;;;4.23;70.76
66762;BME280;53672;48.176;16.338;2023-02-17T02:34:02;99918.22;;;4.25;71.22
66762;BME280;53672;48.176;16.338;2023-02-17T02:39:09;99914.47;;;4.33;70.92
66762;BME280;53672;48.176;16.338;2023-02-17T02:44:12;99912.78;;;4.38;71.55
66762;BME280;53672;48.176;16.338;2023-02-17T02:49:15;99900.53;;;4.31;71.82
66762;BME280;53672;48.176;16.338;2023-02-17T02:54:21;99899.91;;;4.29;72.68
66762;BME280;53672;48.176;16.338;2023-02-17T02:59:33;99905.94;;;4.24;73.42
66762;BME280;53672;48.176;16.338;2023-02-17T03:04:44;99909.19;;;4.26;73.08
66762;BME280;53672;48.176;16.338;2023-02-17T03:09:51;99905.50;;;4.27;72.01
66762;BME280;53672;48.176;16.338;2023-02-17T03:14:57;99910.97;;;4.32;71.99
66762;BME280;53672;48.176;16.338;2023-02-17T03:20:02;99901.50;;;4.36;72.35
66762;BME280;53672;48.176;16.338;2023-02-17T03:25:04;99903.66;;;4.28;72.23
66762;BME280;53672;48.176;16.338;2023-02-17T03:30:06;99894.88;;;4.21;72.79
66762;BME280;53672;48.176;16.338;2023-02-17T03:35:08;99895.41;;;4.29;72.20
66762;BME280;53672;48.176;16.338;2023-02-17T03:40:09;99895.34;;;4.36;72.16
66762;BME280;53672;48.176;16.338;2023-02-17T03:45:10;99891.19;;;4.40;72.67
66762;BME280;53672;48.176;16.338;2023-02-17T03:50:12;99878.00;;;4.45;71.54
66762;BME280;53672;48.176;16.338;2023-02-17T03:55:12;99890.16;;;4.59;70.47
66762;BME280;53672;48.176;16.338;2023-02-17T04:00:14;99887.94;;;4.74;70.72
66762;BME280;53672;48.176;16.338;2023-02-17T04:05:16;99891.97;;;4.95;69.85
66762;BME280;53672;48.176;16.338;2023-02-17T04:10:17;99896.75;;;5.23;68.25
66762;BME280;53672;48.176;16.338;2023-02-17T04:15:17;99896.31;;;5.67;66.07
66762;BME280;53672;48.176;16.338;2023-02-17T04:20:20;99890.81;;;6.27;64.40
66762;BME280;53672;48.176;16.338;2023-02-17T04:25:20;99893.34;;;6.56;63.13
66762;BME280;53672;48.176;16.338;2023-02-17T04:30:21;99893.41;;;6.73;62.62
66762;BME280;53672;48.176;16.338;2023-02-17T04:35:23;99869.81;;;6.98;62.43
66762;BME280;53672;48.176;16.338;2023-02-17T04:40:23;99865.09;;;7.34;60.35
66762;BME280;53672;48.176;16.338;2023-02-17T04:45:24;99855.81;;;7.53;59.04
66762;BME280;53672;48.176;16.338;2023-02-17T04:50:26;99879.97;;;7.70;57.77
66762;BME280;53672;48.176;16.338;2023-02-17T04:55:26;99879.63;;;7.66;58.10
66762;BME280;53672;48.176;16.338;2023-02-17T05:00:27;99882.88;;;7.68;57.08
66762;BME280;53672;48.176;16.338;2023-02-17T05:05:29;99874.16;;;7.78;55.89
66762;BME280;53672;48.176;16.338;2023-02-17T05:10:29;99876.22;;;7.87;55.29
66762;BME280;53672;48.176;16.338;2023-02-17T05:15:30;99865.31;;;7.94;54.30
66762;BME280;53672;48.176;16.338;2023-02-17T05:20:32;99867.84;;;8.00;54.03
66762;BME280;53672;48.176;16.338;2023-02-17T05:25:32;99854.00;;;7.92;54.64
66762;BME280;53672;48.176;16.338;2023-02-17T05:30:33;99834.91;;;7.88;53.82
66762;BME280;53672;48.176;16.338;2023-02-17T05:35:35;99830.75;;;7.97;53.37
66762;BME280;53672;48.176;16.338;2023-02-17T05:40:36;99833.13;;;7.94;53.56
66762;BME280;53672;48.176;16.338;2023-02-17T05:45:36;99843.13;;;7.82;54.60
66762;BME280;53672;48.176;16.338;2023-02-17T05:50:38;99832.66;;;7.80;54.68
66762;BME280;53672;48.176;16.338;2023-02-17T05:55:38;99847.34;;;7.94;54.51
66762;BME280;53672;48.176;16.338;2023-02-17T06:00:39;99853.66;;;8.05;54.46
66762;BME280;53672;48.176;16.338;2023-02-17T06:05:41;99846.69;;;8.04;54.60
66762;BME280;53672;48.176;16.338;2023-02-17T06:10:41;99843.84;;;8.10;54.47
66762;BME280;53672;48.176;16.338;2023-02-17T06:15:42;99846.84;;;8.14;54.71
66762;BME280;53672;48.176;16.338;2023-02-17T06:20:44;99843.97;;;8.21;54.91
66762;BME280;53672;48.176;16.338;2023-02-17T06:25:44;99848.28;;;8.22;54.30
66762;BME280;53672;48.176;16.338;2023-02-17T06:30:45;99855.44;;;8.33;54.19
66762;BME280;53672;48.176;16.338;2023-02-17T06:35:49;99852.53;;;8.34;54.15
66762;BME280;53672;48.176;16.338;2023-02-17T06:40:49;99835.91;;;8.37;54.11
66762;BME280;53672;48.176;16.338;2023-02-17T06:45:50;99839.97;;;8.40;54.21
66762;BME280;53672;48.176;16.338;2023-02-17T06:50:52;99839.47;;;8.43;54.19
66762;BME280;53672;48.176;16.338;2023-02-17T06:55:52;99845.16;;;8.46;54.29
66762;BME280;53672;48.176;16.338;2023-02-17T07:00:53;99840.72;;;8.57;54.04
66762;BME280;53672;48.176;16.338;2023-02-17T07:05:57;99838.03;;;8.79;53.14
66762;BME280;53672;48.176;16.338;2023-02-17T07:10:58;99845.69;;;9.13;52.29
66762;BME280;53672;48.176;16.338;2023-02-17T07:15:58;99846.16;;;9.64;51.80
66762;BME280;53672;48.176;16.338;2023-02-17T07:21:00;99841.38;;;9.12;53.32
66762;BME280;53672;48.176;16.338;2023-02-17T07:26:01;99843.03;;;8.70;55.31
66762;BME280;53672;48.176;16.338;2023-02-17T07:31:05;99829.22;;;8.40;56.27
66762;BME280;53672;48.176;16.338;2023-02-17T07:36:10;99823.19;;;7.94;57.01
66762;BME280;53672;48.176;16.338;2023-02-17T07:41:12;99835.69;;;8.05;56.61
66762;BME280;53672;48.176;16.338;2023-02-17T07:46:13;99840.41;;;7.98;57.25
66762;BME280;53672;48.176;16.338;2023-02-17T07:51:18;99855.56;;;8.59;55.57
66762;BME280;53672;48.176;16.338;2023-02-17T07:56:20;99853.06;;;9.01;54.59
66762;BME280;53672;48.176;16.338;2023-02-17T08:01:23;99849.44;;;9.12;54.24
66762;BME280;53672;48.176;16.338;2023-02-17T08:06:25;99836.72;;;8.81;55.22
66762;BME280;53672;48.176;16.338;2023-02-17T08:11:25;99830.47;;;8.54;54.84
66762;BME280;53672;48.176;16.338;2023-02-17T08:16:26;99836.84;;;8.48;53.80
66762;BME280;53672;48.176;16.338;2023-02-17T08:21:28;99837.03;;;8.85;54.57
66762;BME280;53672;48.176;16.338;2023-02-17T08:26:29;99844.13;;;9.18;54.08
66762;BME280;53672;48.176;16.338;2023-02-17T08:31:31;99838.94;;;9.69;53.51
66762;BME280;53672;48.176;16.338;2023-02-17T08:36:34;99828.00;;;10.65;55.76
66762;BME280;53672;48.176;16.338;2023-02-17T08:41:36;99841.94;;;11.64;53.80
66762;BME280;53672;48.176;16.338;2023-02-17T08:46:37;99827.88;;;12.28;51.81
66762;BME280;53672;48.176;16.338;2023-02-17T08:51:39;99827.78;;;12.58;51.25
66762;BME280;53672;48.176;16.338;2023-02-17T08:56:41;99831.34;;;12.49;52.11
66762;BME280;53672;48.176;16.338;2023-02-17T09:01:42;99825.94;;;12.44;52.21
66762;BME280;53672;48.176;16.338;2023-02-17T09:06:46;99832.72;;;12.36;53.59
66762;BME280;53672;48.176;16.338;2023-02-17T09:11:47;99811.41;;;12.25;53.23
66762;BME280;53672;48.176;16.338;2023-02-17T09:16:48;99841.66;;;12.27;54.47
66762;BME280;53672;48.176;16.338;2023-02-17T09:21:50;99821.63;;;12.43;58.50
66762;BME280;53672;48.176;16.338;2023-02-17T09:26:51;99813.59;;;13.36;57.91
66762;BME280;53672;48.176;16.338;2023-02-17T09:31:51;99802.22;;;12.90;60.09
66762;BME280;53672;48.176;16.338;2023-02-17T09:36:53;99795.84;;;12.60;62.50
66762;BME280;53672;48.176;16.338;2023-02-17T09:41:54;99802.00;;;12.76;64.00
66762;BME280;53672;48.176;16.338;2023-02-17T09:46:59;99794.72;;;12.71;65.80
66762;BME280;53672;48.176;16.338;2023-02-17T09:52:07;99792.75;;;12.28;67.51
66762;BME280;53672;48.176;16.338;2023-02-17T09:57:13;99789.84;;;11.79;70.51
66762;BME280;53672;48.176;16.338;2023-02-17T10:02:20;99785.81;;;11.36;73.61
66762;BME280;53672;48.176;16.338;2023-02-17T10:07:27;99784.94;;;11.10;73.79
66762;BME280;53672;48.176;16.338;2023-02-17T10:12:31;99768.78;;;11.20;71.65
66762;BME280;53672;48.176;16.338;2023-02-17T10:17:37;99780.13;;;11.23;72.26
66762;BME280;53672;48.176;16.338;2023-02-17T10:22:44;99784.69;;;11.27;72.49
66762;BME280;53672;48.176;16.338;2023-02-17T10:27:50;99776.34;;;11.39;72.40
66762;BME280;53672;48.176;16.338;2023-02-17T10:33:00;99746.13;;;11.32;69.42
66762;BME280;53672;48.176;16.338;2023-02-17T10:38:10;99764.47;;;11.35;68.46
66762;BME280;53672;48.176;16.338;2023-02-17T10:43:19;99749.88;;;11.41;67.64
66762;BME280;53672;48.176;16.338;2023-02-17T10:48:23;99748.00;;;11.41;66.34
66762;BME280;53672;48.176;16.338;2023-02-17T10:53:30;99735.88;;;11.39;64.37
66762;BME280;53672;48.176;16.338;2023-02-17T10:58:34;99728.31;;;11.36;64.44
66762;BME280;53672;48.176;16.338;2023-02-17T11:03:36;99718.59;;;11.30;64.10
66762;BME280;53672;48.176;16.338;2023-02-17T11:08:40;99720.19;;;11.41;63.28
66762;BME280;53672;48.176;16.338;2023-02-17T11:13:57;99712.66;;;11.53;62.87
66762;BME280;53672;48.176;16.338;2023-02-17T11:19:00;99709.38;;;11.61;62.03
66762;BME280;53672;48.176;16.338;2023-02-17T11:24:04;99688.59;;;11.72;61.74
66762;BME280;53672;48.176;16.338;2023-02-17T11:29:07;99684.28;;;11.76;60.47
66762;BME280;53672;48.176;16.338;2023-02-17T11:34:13;99674.81;;;11.88;59.63
66762;BME280;53672;48.176;16.338;2023-02-17T11:39:19;99672.06;;;11.93;58.87
66762;BME280;53672;48.176;16.338;2023-02-17T11:44:24;99669.41;;;11.88;59.09
66762;BME280;53672;48.176;16.338;2023-02-17T11:49:41;99660.16;;;11.99;59.00
66762;BME280;53672;48.176;16.338;2023-02-17T11:54:54;99665.53;;;12.04;59.38
66762;BME280;53672;48.176;16.338;2023-02-17T12:00:11;99653.38;;;12.07;59.91
66762;BME280;53672;48.176;16.338;2023-02-17T12:05:19;99640.94;;;12.11;60.43
66762;BME280;53672;48.176;16.338;2023-02-17T12:10:36;99648.53;;;12.04;61.28
66762;BME280;53672;48.176;16.338;2023-02-17T12:15:47;99646.63;;;12.04;62.52
66762;BME280;53672;48.176;16.338;2023-02-17T12:20:58;99645.03;;;11.98;63.09
66762;BME280;53672;48.176;16.338;2023-02-17T12:26:08;99640.69;;;12.02;62.71
66762;BME280;53672;48.176;16.338;2023-02-17T12:31:20;99637.16;;;12.12;62.37
66762;BME280;53672;48.176;16.338;2023-02-17T12:36:28;99640.13;;;12.10;62.28
66762;BME280;53672;48.176;16.338;2023-02-17T12:41:34;99636.81;;;12.24;62.43
66762;BME280;53672;48.176;16.338;2023-02-17T12:46:38;99630.88;;;12.22;62.23
66762;BME280;53672;48.176;16.338;2023-02-17T12:51:43;99598.44;;;12.22;62.13
66762;BME280;53672;48.176;16.338;2023-02-17T12:56:57;99608.50;;;12.06;63.12
66762;BME280;53672;48.176;16.338;2023-02-17T13:02:01;99610.13;;;12.07;62.70
66762;BME280;53672;48.176;16.338;2023-02-17T13:07:12;99574.75;;;12.08;62.72
66762;BME280;53672;48.176;16.338;2023-02-17T13:12:30;99579.09;;;12.04;63.25
66762;BME280;53672;48.176;16.338;2023-02-17T13:17:33;99570.44;;;12.07;63.82
66762;BME280;53672;48.176;16.338;2023-02-17T13:22:36;99590.41;;;12.11;64.29
66762;BME280;53672;48.176;16.338;2023-02-17T13:27:39;99572.81;;;12.19;64.32
66762;BME280;53672;48.176;16.338;2023-02-17T13:32:40;99569.84;;;12.15;64.45
66762;BME280;53672;48.176;16.338;2023-02-17T13:37:42;99569.03;;;12.15;64.69
66762;BME280;53672;48.176;16.338;2023-02-17T13:42:45;99571.44;;;12.22;64.62
66762;BME280;53672;48.176;16.338;2023-02-17T13:47:48;99565.94;;;12.32;63.48
66762;BME280;53672;48.176;16.338;2023-02-17T13:52:49;99563.75;;;12.39;63.53
66762;BME280;53672;48.176;16.338;2023-02-17T13:57:54;99552.59;;;12.45;63.60
66762;BME280;53672;48.176;16.338;2023-02-17T14:02:57;99543.69;;;12.45;63.83
66762;BME280;53672;48.176;16.338;2023-02-17T14:08:02;99562.03;;;12.48;63.82
66762;BME280;53672;48.176;16.338;2023-02-17T14:13:08;99532.78;;;12.55;63.70
66762;BME280;53672;48.176;16.338;2023-02-17T14:18:13;99547.56;;;12.96;64.71
66762;BME280;53672;48.176;16.338;2023-02-17T14:23:14;99536.75;;;13.25;62.09
66762;BME280;53672;48.176;16.338;2023-02-17T14:28:21;99528.28;;;13.32;60.54
66762;BME280;53672;48.176;16.338;2023-02-17T14:33:23;99511.16;;;13.12;60.31
66762;BME280;53672;48.176;16.338;2023-02-17T14:38:25;99493.91;;;13.03;60.06
66762;BME280;53672;48.176;16.338;2023-02-17T14:43:28;99506.88;;;13.06;59.85
66762;BME280;53672;48.176;16.338;2023-02-17T14:48:29;99516.59;;;13.07;59.76
66762;BME280;53672;48.176;16.338;2023-02-17T14:53:32;99505.25;;;13.10;59.41
66762;BME280;53672;48.176;16.338;2023-02-17T14:58:35;99507.88;;;13.15;59.51
66762;BME280;53672;48.176;16.338;2023-02-17T15:03:35;99511.34;;;13.21;59.04
66762;BME280;53672;48.176;16.338;2023-02-17T15:08:37;99492.28;;;13.31;58.05
66762;BME280;53672;48.176;16.338;2023-02-17T15:13:39;99504.41;;;13.34;57.92
66762;BME280;53672;48.176;16.338;2023-02-17T15:18:40;99500.03;;;13.38;57.18
66762;BME280;53672;48.176;16.338;2023-02-17T15:23:40;99501.66;;;13.39;57.22
66762;BME280;53672;48.176;16.338;2023-02-17T15:28:43;99492.50;;;13.35;57.58
66762;BME280;53672;48.176;16.338;2023-02-17T15:33:43;99486.28;;;13.34;57.58
66762;BME280;53672;48.176;16.338;2023-02-17T15:38:44;99490.66;;;13.30;58.03
66762;BME280;53672;48.176;16.338;2023-02-17T15:43:47;99479.31;;;13.28;58.02
66762;BME280;53672;48.176;16.338;2023-02-17T15:48:49;99482.63;;;13.44;57.20
66762;BME280;53672;48.176;16.338;2023-02-17T15:53:50;99485.88;;;13.46;56.61
66762;BME280;53672;48.176;16.338;2023-02-17T15:58:53;99477.81;;;13.41;57.00
66762;BME280;53672;48.176;16.338;2023-02-17T16:03:55;99479.19;;;13.38;57.10
66762;BME280;53672;48.176;16.338;2023-02-17T16:08:56;99469.00;;;13.30;57.47
66762;BME280;53672;48.176;16.338;2023-02-17T16:14:00;99456.56;;;13.29;57.24
66762;BME280;53672;48.176;16.338;2023-02-17T16:19:02;99459.03;;;13.26;57.68
66762;BME280;53672;48.176;16.338;2023-02-17T16:24:04;99465.78;;;13.28;57.50
66762;BME280;53672;48.176;16.338;2023-02-17T16:29:13;99448.72;;;13.28;59.36
66762;BME280;53672;48.176;16.338;2023-02-17T16:34:16;99452.59;;;13.22;59.40
66762;BME280;53672;48.176;16.338;2023-02-17T16:39:19;99449.69;;;13.18;59.44
66762;BME280;53672;48.176;16.338;2023-02-17T16:44:22;99449.31;;;13.25;59.06
66762;BME280;53672;48.176;16.338;2023-02-17T16:49:24;99447.69;;;13.24;59.15
66762;BME280;53672;48.176;16.338;2023-02-17T16:54:28;99437.97;;;13.23;59.57
66762;BME280;53672;48.176;16.338;2023-02-17T16:59:31;99452.88;;;13.20;60.03
66762;BME280;53672;48.176;16.338;2023-02-17T17:04:31;99437.22;;;13.17;60.18
66762;BME280;53672;48.176;16.338;2023-02-17T17:09:32;99431.59;;;13.13;60.55
66762;BME280;53672;48.176;16.338;2023-02-17T17:14:35;99435.91;;;13.14;60.92
66762;BME280;53672;48.176;16.338;2023-02-17T17:19:36;99429.19;;;13.07;61.42
66762;BME280;53672;48.176;16.338;2023-02-17T17:24:36;99439.56;;;13.00;61.93
66762;BME280;53672;48.176;16.338;2023-02-17T17:29:39;99449.56;;;12.99;62.38
66762;BME280;53672;48.176;16.338;2023-02-17T17:34:42;99450.97;;;12.97;63.03
66762;BME280;53672;48.176;16.338;2023-02-17T17:39:43;99439.44;;;12.86;63.37
66762;BME280;53672;48.176;16.338;2023-02-17T17:44:46;99463.19;;;12.94;63.25
66762;BME280;53672;48.176;16.338;2023-02-17T17:49:47;99462.66;;;12.92;63.70
66762;BME280;53672;48.176;16.338;2023-02-17T17:54:48;99454.03;;;12.90;64.26
66762;BME280;53672;48.176;16.338;2023-02-17T17:59:51;99474.03;;;12.89;64.43
66762;BME280;53672;48.176;16.338;2023-02-17T18:04:52;99448.31;;;12.92;64.31
66762;BME280;53672;48.176;16.338;2023-02-17T18:09:53;99444.88;;;12.86;64.79
66762;BME280;53672;48.176;16.338;2023-02-17T18:14:56;99457.06;;;12.84;65.31
66762;BME280;53672;48.176;16.338;2023-02-17T18:19:57;99448.06;;;12.88;65.21
66762;BME280;53672;48.176;16.338;2023-02-17T18:24:58;99450.03;;;12.83;65.93
66762;BME280;53672;48.176;16.338;2023-02-17T18:30:02;99449.81;;;12.79;66.56
66762;BME280;53672;48.176;16.338;2023-02-17T18:35:03;99447.72;;;12.71;67.40
66762;BME280;53672;48.176;16.338;2023-02-17T18:40:06;99447.69;;;12.76;67.53
66762;BME280;53672;48.176;16.338;2023-02-17T18:45:10;99455.22;;;12.79;67.76
66762;BME280;53672;48.176;16.338;2023-02-17T18:50:12;99458.78;;;12.75;68.24
66762;BME280;53672;48.176;16.338;2023-02-17T18:55:14;99436.84;;;12.76;68.34
66762;BME280;53672;48.176;16.338;2023-02-17T19:00:18;99435.31;;;12.70;68.20
66762;BME280;53672;48.176;16.338;2023-02-17T19:05:19;99424.75;;;12.68;68.49
66762;BME280;53672;48.176;16.338;2023-02-17T19:10:20;99434.78;;;12.68;68.46
66762;BME280;53672;48.176;16.338;2023-02-17T19:15:23;99436.19;;;12.60;68.88
66762;BME280;53672;48.176;16.338;2023-02-17T19:20:25;99416.06;;;12.48;69.22
66762;BME280;53672;48.176;16.338;2023-02-17T19:25:26;99388.50;;;12.46;69.43
66762;BME280;53672;48.176;16.338;2023-02-17T19:30:29;99387.69;;;12.45;69.47
66762;BME280;53672;48.176;16.338;2023-02-17T19:35:30;99367.84;;;12.55;68.94
66762;BME280;53672;48.176;16.338;2023-02-17T19:40:31;99347.19;;;12.64;68.38
66762;BME280;53672;48.176;16.338;2023-02-17T19:45:34;99361.16;;;12.71;67.88
66762;BME280;53672;48.176;16.338;2023-02-17T19:50:36;99364.75;;;12.66;68.04
66762;BME280;53672;48.176;16.338;2023-02-17T19:55:37;99381.09;;;12.56;68.54
66762;BME280;53672;48.176;16.338;2023-02-17T20:00:39;99389.94;;;12.62;68.40
66762;BME280;53672;48.176;16.338;2023-02-17T20:05:41;99395.34;;;12.62;68.61
66762;BME280;53672;48.176;16.338;2023-02-17T20:10:42;99386.06;;;12.73;68.20
66762;BME280;53672;48.176;16.338;2023-02-17T20:15:44;99402.28;;;12.73;68.21
66762;BME280;53672;48.176;16.338;2023-02-17T20:20:51;99402.63;;;12.66;68.74
66762;BME280;53672;48.176;16.338;2023-02-17T20:25:53;99417.91;;;12.52;69.30
66762;BME280;53672;48.176;16.338;2023-02-17T20:30:55;99446.94;;;12.42;69.98
66762;BME280;53672;48.176;16.338;2023-02-17T20:35:56;99435.88;;;12.38;70.42
66762;BME280;53672;48.176;16.338;2023-02-17T20:40:59;99464.06;;;12.27;71.07
66762;BME280;53672;48.176;16.338;2023-02-17T20:46:01;99494.44;;;12.19;71.20
66762;BME280;53672;48.176;16.338;2023-02-17T20:51:03;99488.69;;;12.26;71.59
66762;BME280;53672;48.176;16.338;2023-02-17T20:56:11;99467.00;;;12.36;70.88
66762;BME280;53672;48.176;16.338;2023-02-17T21:01:13;99466.50;;;12.29;70.96
66762;BME280;53672;48.176;16.338;2023-02-17T21:06:19;99464.38;;;12.26;71.00
66762;BME280;53672;48.176;16.338;2023-02-17T21:11:21;99464.13;;;12.22;71.17
66762;BME280;53672;48.176;16.338;2023-02-17T21:16:25;99455.16;;;12.27;70.82
66762;BME280;53672;48.176;16.338;2023-02-17T21:21:27;99468.09;;;12.30;70.71
66762;BME280;53672;48.176;16.338;2023-02-17T21:26:28;99469.00;;;12.20;71.02
66762;BME280;53672;48.176;16.338;2023-02-17T21:31:31;99481.75;;;12.14;71.30
66762;BME280;53672;48.176;16.338;2023-02-17T21:36:33;99491.44;;;12.20;71.23
66762;BME280;53672;48.176;16.338;2023-02-17T21:41:34;99488.16;;;12.24;71.04
66762;BME280;53672;48.176;16.338;2023-02-17T21:46:36;99473.75;;;12.33;70.50
66762;BME280;53672;48.176;16.338;2023-02-17T21:51:37;99479.78;;;12.54;69.52
66762;BME280;53672;48.176;16.338;2023-02-17T21:56:38;99480.50;;;12.64;68.95
66762;BME280;53672;48.176;16.338;2023-02-17T22:01:41;99494.31;;;12.63;68.79
66762;BME280;53672;48.176;16.338;2023-02-17T22:06:41;99483.50;;;12.63;68.71
66762;BME280;53672;48.176;16.338;2023-02-17T22:11:43;99485.06;;;12.69;68.34
66762;BME280;53672;48.176;16.338;2023-02-17T22:16:46;99480.75;;;12.68;68.29
66762;BME280;53672;48.176;16.338;2023-02-17T22:21:47;99489.06;;;12.77;67.91
66762;BME280;53672;48.176;16.338;2023-02-17T22:26:48;99497.97;;;12.77;67.68
66762;BME280;53672;48.176;16.338;2023-02-17T22:31:50;99481.78;;;12.72;67.96
66762;BME280;53672;48.176;16.338;2023-02-17T22:36:50;99474.75;;;12.71;68.04
66762;BME280;53672;48.176;16.338;2023-02-17T22:41:51;99469.13;;;12.67;68.06
66762;BME280;53672;48.176;16.338;2023-02-17T22:46:53;99465.91;;;12.65;68.07
66762;BME280;53672;48.176;16.338;2023-02-17T22:51:53;99459.41;;;12.66;67.69
66762;BME280;53672;48.176;16.338;2023-02-17T22:56:54;99455.31;;;12.69;67.74
66762;BME280;53672;48.176;16.338;2023-02-17T23:01:58;99447.13;;;12.74;67.18
66762;BME280;53672;48.176;16.338;2023-02-17T23:06:58;99442.31;;;12.71;67.59
66762;BME280;53672;48.176;16.338;2023-02-17T23:11:59;99438.03;;;12.65;67.57
66762;BME280;53672;48.176;16.338;2023-02-17T23:17:03;99456.41;;;12.68;67.36
66762;BME280;53672;48.176;16.338;2023-02-17T23:22:05;99453.66;;;12.73;67.07
66762;BME280;53672;48.176;16.338;2023-02-17T23:27:06;99443.41;;;12.70;67.18
66762;BME280;53672;48.176;16.338;2023-02-17T23:32:08;99442.84;;;12.73;66.80
66762;BME280;53672;48.176;16.338;2023-02-17T23:37:09;99437.78;;;12.66;67.00
66762;BME280;53672;48.176;16.338;2023-02-17T23:42:09;99432.75;;;12.55;67.47
66762;BME280;53672;48.176;16.338;2023-02-17T23:47:11;99437.56;;;12.58;67.42
66762;BME280;53672;48.176;16.338;2023-02-17T23:52:11;99440.72;;;12.70;66.99
66762;BME280;53672;48.176;16.338;2023-02-17T23:57:12;99413.38;;;12.71;66.61
